MSC Vega — D5BE4 — position and weather

sailwx.info

Track history (hours):
 
Tides and Currents Weather Stations Pressure Air Temp Water Temp Dewpoint Dewpoint Depression Visibility Wind Speed Wind Dir Waves Ship Positions

MSC Vega

Last reported at 2018-Jun-25 01:50 UTC. Time now 2018-Jun-25 04:29 UTC.
Position N 35°37' W 127°07'.

Length 366 m; draft 12.2 m.

Type: Ship (hazmat cat A). MMSI: 636015506.

Date/timePositionNaut miles runAvg speedWind from/ knotsBaromVisibWave heightAir tempDewpointWater temp
2018-Jun-25 01:50N 35°37' W 127°07'1217.1
2018-Jun-25 01:09N 35°42' W 127°19'217.1
2018-Jun-25 01:00N 35°43' W 127°22'1217.2
2018-Jun-25 00:17N 35°49' W 127°36'517.4
2018-Jun-25 00:00N 35°51' W 127°41'917.3
2018-Jun-24 23:30N 35°55' W 127°50'917.4
2018-Jun-24 23:00N 35°59' W 128°00'1417.7
2018-Jun-24 22:14N 36°05' W 128°15'419.2
2018-Jun-24 22:00N 36°07' W 128°20'1920.5
2018-Jun-24 21:05N 36°16' W 128°41'220.7
2018-Jun-24 21:00N 36°17' W 128°42'1220.4
2018-Jun-24 20:26N 36°22' W 128°56'1020.5
2018-Jun-24 19:57N 36°27' W 129°06'1220.5
2018-Jun-24 19:22N 36°33' W 129°19'1020.3
2018-Jun-24 18:53N 36°37' W 129°30'11220.6
2018-Jun-24 13:27N 37°29' W 131°34'920.9
2018-Jun-24 13:00N 37°33' W 131°45'1620.9
2018-Jun-24 12:16N 37°40' W 132°02'  
Track history (hours):
 
Tides and Currents Weather Stations Pressure Air Temp Water Temp Dewpoint Dewpoint Depression Visibility Wind Speed Wind Dir Waves Ship Positions

MSC Vega

Last reported at 2018-Jun-25 01:50 UTC. Time now 2018-Jun-25 04:29 UTC.
Position N 35°37' W 127°07'.

Length 366 m; draft 12.2 m.

Type: Ship (hazmat cat A). MMSI: 636015506.

Date/timePositionNaut miles runAvg speedWind from/ knotsBaromVisibWave heightAir tempDewpointWater temp
2018-Jun-25 01:50N 35°37' W 127°07'1217.1
2018-Jun-25 01:09N 35°42' W 127°19'217.1
2018-Jun-25 01:00N 35°43' W 127°22'1217.2
2018-Jun-25 00:17N 35°49' W 127°36'517.4
2018-Jun-25 00:00N 35°51' W 127°41'917.3
2018-Jun-24 23:30N 35°55' W 127°50'917.4
2018-Jun-24 23:00N 35°59' W 128°00'1417.7
2018-Jun-24 22:14N 36°05' W 128°15'419.2
2018-Jun-24 22:00N 36°07' W 128°20'1920.5
2018-Jun-24 21:05N 36°16' W 128°41'220.7
2018-Jun-24 21:00N 36°17' W 128°42'1220.4
2018-Jun-24 20:26N 36°22' W 128°56'1020.5
2018-Jun-24 19:57N 36°27' W 129°06'1220.5
2018-Jun-24 19:22N 36°33' W 129°19'1020.3
2018-Jun-24 18:53N 36°37' W 129°30'11220.6
2018-Jun-24 13:27N 37°29' W 131°34'920.9
2018-Jun-24 13:00N 37°33' W 131°45'1620.9
2018-Jun-24 12:16N 37°40' W 132°02'  

Dump ship's entire track history